createdAt,value
2023-03-13T00:01:36.554Z,12.15
2023-03-13T00:04:03.900Z,12.77
2023-03-13T00:06:34.401Z,13.93
2023-03-13T00:09:02.756Z,15.18
2023-03-13T00:11:29.996Z,12.15
2023-03-13T00:14:05.152Z,11.00
2023-03-13T00:16:37.852Z,18.00
2023-03-13T00:19:06.404Z,14.63
2023-03-13T00:21:41.535Z,11.65
2023-03-13T00:24:11.571Z,10.45
2023-03-13T00:26:38.723Z,25.88
2023-03-13T00:29:08.311Z,13.43
2023-03-13T00:31:38.537Z,14.77
2023-03-13T00:34:06.012Z,10.27
2023-03-13T00:36:37.030Z,9.00
2023-03-13T00:39:07.958Z,10.77
2023-03-13T00:41:37.403Z,22.73
2023-03-13T00:44:08.889Z,23.20
2023-03-13T00:46:39.723Z,12.68
2023-03-13T00:49:07.257Z,15.85
2023-03-13T00:51:40.246Z,17.08
2023-03-13T00:54:07.501Z,11.27
2023-03-13T00:56:39.805Z,23.02
2023-03-13T01:02:30.077Z,34.63
2023-03-13T01:04:59.795Z,22.40
2023-03-13T01:07:27.660Z,18.48
2023-03-13T01:09:55.050Z,15.40
2023-03-13T01:12:22.471Z,8.25
2023-03-13T01:14:53.500Z,12.00
2023-03-13T01:17:22.637Z,12.75
2023-03-13T01:19:56.539Z,16.90
2023-03-13T01:24:55.168Z,20.17
2023-03-13T01:27:22.541Z,14.57
2023-03-13T01:29:50.051Z,13.23
2023-03-13T01:32:17.289Z,22.05
2023-03-13T01:34:44.479Z,20.15
2023-03-13T01:37:11.684Z,20.17
2023-03-13T01:39:39.483Z,22.15
2023-03-13T01:42:07.292Z,18.48
2023-03-13T01:45:30.121Z,20.30
2023-03-13T01:47:57.508Z,24.40
2023-03-13T01:50:40.758Z,15.60
2023-03-13T01:53:20.014Z,24.95
2023-03-13T01:55:47.750Z,20.15
2023-03-13T01:58:15.291Z,14.90
2023-03-13T02:00:55.056Z,18.38
2023-03-13T02:03:35.721Z,6.95
2023-03-13T02:06:14.904Z,13.85
2023-03-13T02:08:57.854Z,11.85
2023-03-13T02:12:00.062Z,29.10
2023-03-13T02:14:33.064Z,18.75
2023-03-13T02:17:08.014Z,13.55
2023-03-13T02:19:46.152Z,12.40
2023-03-13T02:22:59.992Z,13.93
2023-03-13T02:25:48.900Z,12.38
2023-03-13T02:28:35.351Z,12.93
2023-03-13T02:31:10.910Z,13.75
2023-03-13T02:33:47.306Z,13.35
2023-03-13T02:36:22.619Z,10.52
2023-03-13T02:38:59.862Z,12.85
2023-03-13T02:41:33.101Z,12.57
2023-03-13T02:44:05.909Z,12.48
2023-03-13T02:46:52.664Z,13.07
2023-03-13T02:49:52.492Z,19.75
2023-03-13T02:52:29.933Z,14.77
2023-03-13T02:55:05.388Z,15.30
2023-03-13T02:57:39.119Z,16.52
2023-03-13T03:00:15.601Z,18.58
2023-03-13T03:02:43.106Z,15.77
2023-03-13T03:05:11.161Z,14.15
2023-03-13T03:07:38.834Z,13.02
2023-03-13T03:10:08.293Z,19.13
2023-03-13T03:12:36.211Z,13.35
2023-03-13T03:15:05.147Z,16.35
2023-03-13T03:17:33.904Z,14.32
2023-03-13T03:20:01.075Z,16.45
2023-03-13T03:22:31.222Z,14.15
2023-03-13T03:24:58.464Z,19.95
2023-03-13T03:27:25.695Z,14.50
2023-03-13T03:29:54.614Z,16.50
2023-03-13T03:32:22.252Z,19.85
2023-03-13T03:34:50.447Z,14.77
2023-03-13T03:37:17.638Z,18.40
2023-03-13T03:39:44.930Z,13.05
2023-03-13T03:42:12.143Z,11.35
2023-03-13T03:44:39.270Z,12.68
2023-03-13T03:47:06.636Z,14.90
2023-03-13T03:49:38.250Z,16.13
2023-03-13T03:52:06.402Z,10.60
2023-03-13T03:54:37.723Z,20.00
2023-03-13T03:57:05.074Z,15.13
2023-03-13T03:59:32.842Z,15.90
2023-03-13T04:02:08.893Z,13.20
2023-03-13T04:04:37.122Z,14.95
2023-03-13T04:07:11.011Z,11.70
2023-03-13T04:09:39.833Z,19.90
2023-03-13T04:12:09.277Z,12.80
2023-03-13T04:14:41.605Z,14.27
2023-03-13T04:17:11.100Z,20.17
2023-03-13T04:19:38.776Z,15.05
2023-03-13T04:22:06.292Z,18.00
2023-03-13T04:24:33.946Z,16.00
2023-03-13T04:27:02.782Z,22.48
2023-03-13T04:29:31.059Z,8.80
2023-03-13T04:32:33.663Z,14.98
2023-03-13T04:35:19.525Z,12.85
2023-03-13T04:38:02.970Z,13.13
2023-03-13T04:40:52.948Z,20.08
2023-03-13T04:43:42.812Z,10.98
2023-03-13T04:46:42.248Z,12.05
2023-03-13T04:49:28.180Z,18.45
2023-03-13T04:52:11.530Z,21.70
2023-03-13T04:55:11.437Z,14.60
2023-03-13T04:58:02.139Z,20.67
2023-03-13T05:00:35.512Z,16.60
2023-03-13T05:03:31.218Z,17.83
2023-03-13T05:06:24.203Z,13.85
2023-03-13T05:09:32.005Z,22.65
2023-03-13T05:12:32.451Z,10.32
2023-03-13T05:15:12.535Z,19.02
2023-03-13T05:18:08.028Z,10.32
2023-03-13T05:20:51.434Z,17.25
2023-03-13T05:23:30.969Z,13.93
2023-03-13T05:26:25.932Z,10.40
2023-03-13T05:29:22.377Z,19.60
2023-03-13T05:32:13.080Z,30.45
2023-03-13T05:41:05.231Z,14.98
2023-03-13T05:47:18.608Z,15.55
2023-03-13T05:50:14.901Z,20.42
2023-03-13T05:53:37.601Z,18.25
2023-03-13T05:56:31.409Z,18.48
2023-03-13T05:59:11.767Z,17.30
2023-03-13T06:01:59.421Z,20.73
2023-03-13T06:04:35.792Z,13.60
2023-03-13T06:07:06.247Z,12.48
2023-03-13T06:09:33.553Z,12.98
2023-03-13T06:12:03.791Z,14.60
2023-03-13T06:17:18.360Z,16.58
2023-03-13T06:19:52.797Z,19.30
2023-03-13T06:22:32.242Z,11.35
2023-03-13T06:25:08.604Z,13.00
2023-03-13T06:27:40.613Z,14.63
2023-03-13T06:30:14.177Z,16.60
2023-03-13T06:35:19.648Z,20.10
2023-03-13T06:37:57.129Z,16.20
2023-03-13T06:40:25.889Z,21.73
2023-03-13T06:45:53.094Z,14.43
2023-03-13T06:48:23.393Z,15.57
2023-03-13T06:50:50.758Z,34.85
2023-03-13T06:53:20.567Z,16.52
2023-03-13T06:55:49.372Z,14.13
2023-03-13T06:58:31.120Z,10.50
2023-03-13T07:01:09.183Z,18.05
2023-03-13T07:03:45.233Z,20.33
2023-03-13T07:06:13.032Z,14.95
2023-03-13T07:08:40.232Z,14.15
2023-03-13T07:11:12.970Z,17.98
2023-03-13T07:13:42.652Z,13.93
2023-03-13T07:16:12.848Z,19.13
2023-03-13T07:18:44.934Z,24.33
2023-03-13T07:21:13.150Z,18.83
2023-03-13T07:23:43.305Z,25.15
2023-03-13T07:26:15.768Z,25.75
2023-03-13T07:28:45.856Z,20.00
2023-03-13T07:31:24.136Z,22.83
2023-03-13T07:33:56.783Z,26.98
2023-03-13T07:36:24.348Z,16.00
2023-03-13T07:38:59.538Z,18.20
2023-03-13T07:41:29.751Z,21.90
2023-03-13T07:43:56.894Z,11.80
2023-03-13T07:46:25.759Z,15.63
2023-03-13T07:48:55.397Z,12.52
2023-03-13T07:51:40.769Z,18.95
2023-03-13T07:54:10.535Z,23.00
2023-03-13T07:56:37.732Z,10.85
2023-03-13T07:59:05.356Z,18.73
2023-03-13T08:01:35.000Z,17.08
2023-03-13T08:04:02.492Z,19.77
2023-03-13T08:06:33.960Z,29.67
2023-03-13T08:09:03.921Z,35.08
2023-03-13T08:11:31.022Z,34.58
2023-03-13T08:13:59.058Z,26.48
2023-03-13T08:16:35.069Z,39.75
2023-03-13T08:19:06.333Z,37.65
2023-03-13T08:21:38.014Z,29.88
2023-03-13T08:24:08.144Z,34.40
2023-03-13T08:26:38.272Z,36.60
2023-03-13T08:29:08.507Z,26.48
2023-03-13T08:31:42.476Z,43.90
2023-03-13T08:34:13.240Z,32.30
2023-03-13T08:36:43.904Z,33.15
2023-03-13T08:39:17.378Z,31.52
2023-03-13T08:44:19.314Z,21.88
2023-03-13T08:46:52.590Z,13.27
2023-03-13T08:49:20.049Z,13.60
2023-03-13T08:51:47.567Z,14.27
2023-03-13T08:54:14.813Z,11.38
2023-03-13T08:56:43.782Z,10.15
2023-03-13T08:59:11.561Z,11.38
2023-03-13T09:01:41.071Z,11.93
2023-03-13T09:04:11.559Z,12.48
2023-03-13T09:06:41.628Z,18.65
2023-03-13T09:09:09.942Z,11.75
2023-03-13T09:11:39.548Z,10.70
2023-03-13T09:14:07.792Z,9.68
2023-03-13T09:16:36.267Z,14.52
2023-03-13T09:19:03.709Z,9.52
2023-03-13T09:21:35.892Z,14.27
2023-03-13T09:24:03.278Z,12.55
2023-03-13T09:26:31.218Z,17.63
2023-03-13T09:28:58.875Z,17.80
2023-03-13T09:31:29.118Z,15.43
2023-03-13T09:33:56.444Z,12.07
2023-03-13T09:36:25.234Z,15.32
2023-03-13T09:38:58.140Z,13.82
2023-03-13T09:41:40.554Z,10.63
2023-03-13T09:44:15.241Z,12.50
2023-03-13T09:47:10.173Z,14.88
2023-03-13T09:49:46.379Z,11.75
2023-03-13T09:52:23.684Z,10.77
2023-03-13T09:55:20.542Z,8.88
2023-03-13T09:58:16.267Z,7.53
2023-03-13T10:00:58.677Z,14.50
2023-03-13T10:03:30.019Z,9.13
2023-03-13T10:06:01.363Z,14.18
2023-03-13T10:08:36.750Z,9.88
2023-03-13T10:12:19.796Z,13.07
2023-03-13T10:15:18.089Z,12.60
2023-03-13T10:17:47.995Z,9.73
2023-03-13T10:20:23.038Z,17.42
2023-03-13T10:23:07.948Z,10.40
2023-03-13T10:25:45.854Z,14.43
2023-03-13T10:28:16.405Z,16.33
2023-03-13T10:30:59.503Z,18.13
2023-03-13T10:33:51.731Z,18.15
2023-03-13T10:36:24.700Z,18.45
2023-03-13T10:39:16.826Z,10.20
2023-03-13T10:41:44.134Z,11.35
2023-03-13T10:44:20.148Z,13.15
2023-03-13T10:46:49.605Z,12.68
2023-03-13T10:49:28.816Z,10.43
2023-03-13T10:52:10.849Z,17.13
2023-03-13T10:54:52.888Z,13.98
2023-03-13T10:57:26.146Z,14.18
2023-03-13T10:59:54.577Z,14.82
2023-03-13T11:02:27.372Z,12.82
2023-03-13T11:04:55.583Z,13.10
2023-03-13T11:07:44.485Z,17.67
2023-03-13T11:10:25.376Z,20.42
2023-03-13T11:12:55.194Z,17.95
2023-03-13T11:15:35.757Z,18.20
2023-03-13T11:18:21.134Z,23.58
2023-03-13T11:20:49.524Z,14.38
2023-03-13T11:23:29.591Z,16.60
2023-03-13T11:26:05.920Z,16.92
2023-03-13T11:28:57.970Z,18.35
2023-03-13T11:31:37.189Z,22.92
2023-03-13T11:34:23.919Z,11.52
2023-03-13T11:37:12.839Z,15.65
2023-03-13T11:40:22.972Z,12.40
2023-03-13T11:43:17.844Z,13.90
2023-03-13T11:46:34.394Z,17.48
2023-03-13T11:49:28.819Z,13.02
2023-03-13T11:52:39.411Z,18.95
2023-03-13T11:55:39.008Z,17.23
2023-03-13T11:58:40.073Z,14.90
2023-03-13T12:01:41.316Z,17.92
2023-03-13T12:04:23.081Z,13.97
2023-03-13T12:07:21.561Z,19.55
2023-03-13T12:10:41.507Z,26.58
2023-03-13T12:13:38.207Z,16.05
2023-03-13T12:16:43.938Z,23.48
2023-03-13T12:20:08.950Z,20.23
2023-03-13T12:23:03.764Z,21.73
2023-03-13T12:26:00.627Z,24.73
2023-03-13T12:28:36.535Z,10.15
2023-03-13T12:31:27.995Z,16.38
2023-03-13T12:34:16.862Z,22.92
2023-03-13T12:37:03.401Z,18.33
2023-03-13T12:39:40.331Z,23.45
2023-03-13T12:42:43.942Z,31.38
2023-03-13T12:45:31.519Z,25.03
2023-03-13T12:48:23.457Z,19.20
2023-03-13T12:54:32.247Z,22.42
2023-03-13T12:58:14.053Z,22.45
2023-03-13T13:00:50.214Z,22.35
2023-03-13T13:03:34.660Z,29.30
2023-03-13T13:09:14.129Z,20.63
2023-03-13T13:11:45.933Z,29.42
2023-03-13T13:14:19.641Z,27.38
2023-03-13T13:17:16.519Z,20.38
2023-03-13T13:19:46.219Z,22.30
2023-03-13T13:22:39.403Z,29.10
2023-03-13T13:25:35.746Z,20.00
2023-03-13T13:28:30.888Z,23.15
2023-03-13T13:31:43.194Z,21.40
2023-03-13T13:34:31.364Z,20.08
2023-03-13T13:37:04.412Z,20.67
2023-03-13T13:39:52.884Z,20.70
2023-03-13T13:42:45.098Z,18.63
2023-03-13T13:45:22.287Z,18.38
2023-03-13T13:48:35.918Z,18.38
2023-03-13T13:51:11.349Z,19.93
2023-03-13T13:53:56.055Z,13.85
2023-03-13T13:56:32.157Z,15.52
2023-03-13T13:59:13.576Z,14.63
2023-03-13T14:01:44.329Z,12.73
2023-03-13T14:04:33.085Z,18.80
2023-03-13T14:07:03.930Z,16.63
2023-03-13T14:09:31.015Z,19.15
2023-03-13T14:12:03.876Z,15.90
2023-03-13T14:14:31.066Z,17.65
2023-03-13T14:16:58.361Z,13.52
2023-03-13T14:19:31.306Z,13.48
2023-03-13T14:22:04.424Z,13.73
2023-03-13T14:24:32.021Z,17.77
2023-03-13T14:27:04.290Z,15.73
2023-03-13T14:29:31.526Z,12.48
2023-03-13T14:32:02.552Z,13.13
2023-03-13T14:34:32.734Z,13.10
2023-03-13T14:37:17.317Z,16.58
2023-03-13T14:39:49.293Z,15.15
2023-03-13T14:42:22.991Z,19.52
2023-03-13T14:44:50.695Z,14.13
2023-03-13T14:47:36.969Z,17.23
2023-03-13T14:50:10.712Z,29.30
2023-03-13T14:52:40.044Z,21.90
2023-03-13T14:55:24.687Z,18.05
2023-03-13T14:57:56.972Z,14.90
2023-03-13T15:00:43.686Z,16.98
2023-03-13T15:03:17.586Z,17.60
2023-03-13T15:05:47.957Z,17.50
2023-03-13T15:08:25.082Z,12.00
2023-03-13T15:10:52.269Z,12.40
2023-03-13T15:13:37.416Z,19.15
2023-03-13T15:16:15.733Z,17.48
2023-03-13T15:18:43.427Z,18.77
2023-03-13T15:21:13.470Z,17.13
2023-03-13T15:23:42.670Z,18.13
2023-03-13T15:26:13.006Z,19.55
2023-03-13T15:28:43.232Z,19.00
2023-03-13T15:31:18.989Z,13.77
2023-03-13T15:33:46.465Z,15.45
2023-03-13T15:36:16.436Z,15.60
2023-03-13T15:38:43.717Z,14.65
2023-03-13T15:41:14.013Z,11.15
2023-03-13T15:43:46.284Z,18.95
2023-03-13T15:46:28.803Z,18.45
2023-03-13T15:48:58.749Z,14.75
2023-03-13T15:51:28.288Z,23.08
2023-03-13T15:53:55.447Z,14.45
2023-03-13T15:56:23.497Z,11.80
2023-03-13T15:58:53.984Z,13.27
2023-03-13T16:01:23.511Z,17.85
2023-03-13T16:04:00.816Z,47.58
2023-03-13T16:06:36.606Z,15.23
2023-03-13T16:09:11.104Z,29.45
2023-03-13T16:12:25.997Z,21.92
2023-03-13T16:14:58.015Z,12.88
2023-03-13T16:17:33.100Z,22.98
2023-03-13T16:20:00.220Z,14.18
2023-03-13T16:22:35.467Z,12.18
2023-03-13T16:25:02.513Z,20.35
2023-03-13T16:27:34.307Z,22.00
2023-03-13T16:30:07.239Z,14.63
2023-03-13T16:32:34.675Z,18.27
2023-03-13T16:35:02.443Z,11.43
2023-03-13T16:37:36.858Z,19.13
2023-03-13T16:40:32.814Z,21.80
2023-03-13T16:43:01.122Z,21.73
2023-03-13T16:45:30.747Z,15.05
2023-03-13T16:48:03.639Z,11.52
2023-03-13T16:50:39.948Z,22.37
2023-03-13T16:53:09.225Z,16.42
2023-03-13T16:55:42.792Z,21.33
2023-03-13T17:00:41.839Z,17.50
2023-03-13T17:03:11.866Z,13.98
2023-03-13T17:05:48.367Z,15.07
2023-03-13T17:08:15.628Z,14.43
2023-03-13T17:10:43.279Z,10.60
2023-03-13T17:13:10.842Z,14.02
2023-03-13T17:15:39.344Z,7.15
2023-03-13T17:18:10.565Z,10.05
2023-03-13T17:20:42.886Z,18.95
2023-03-13T17:23:19.770Z,15.45
2023-03-13T17:25:56.352Z,15.60
2023-03-13T17:28:30.292Z,12.82
2023-03-13T17:31:00.592Z,19.13
2023-03-13T17:33:33.719Z,19.35
2023-03-13T17:36:22.519Z,13.80
2023-03-13T17:38:57.600Z,20.30
2023-03-13T17:41:39.596Z,15.77
2023-03-13T17:44:11.434Z,10.75
2023-03-13T17:46:42.539Z,15.77
2023-03-13T17:49:17.194Z,14.07
2023-03-13T17:51:49.409Z,13.48
2023-03-13T17:54:16.726Z,12.30
2023-03-13T17:56:44.510Z,14.93
2023-03-13T17:59:19.431Z,15.88
2023-03-13T18:01:47.114Z,12.65
2023-03-13T18:04:19.289Z,18.30
2023-03-13T18:06:54.858Z,14.65
2023-03-13T18:09:36.120Z,13.65
2023-03-13T18:12:12.176Z,17.90
2023-03-13T18:14:49.943Z,14.93
2023-03-13T18:17:32.890Z,14.75
2023-03-13T18:20:02.702Z,15.45
2023-03-13T18:22:31.228Z,18.80
2023-03-13T18:25:09.621Z,17.20
2023-03-13T18:27:37.271Z,16.55
2023-03-13T18:30:07.425Z,11.38
2023-03-13T18:32:34.756Z,15.65
2023-03-13T18:35:02.016Z,16.67
2023-03-13T18:37:33.429Z,12.82
2023-03-13T18:40:11.790Z,18.65
2023-03-13T18:42:42.441Z,13.75
2023-03-13T18:45:26.312Z,11.65
2023-03-13T18:47:53.962Z,15.15
2023-03-13T18:51:11.877Z,18.00
2023-03-13T18:53:42.248Z,28.88
2023-03-13T18:56:32.719Z,16.25
2023-03-13T18:59:16.020Z,28.17
2023-03-13T19:01:52.728Z,11.32
2023-03-13T19:06:56.236Z,19.80
2023-03-13T19:09:43.640Z,17.20
2023-03-13T19:12:12.130Z,18.55
2023-03-13T19:14:40.661Z,18.63
2023-03-13T19:17:27.041Z,18.33
2023-03-13T19:20:05.632Z,21.27
2023-03-13T19:22:41.712Z,18.60
2023-03-13T19:25:22.563Z,21.50
2023-03-13T19:27:53.301Z,27.75
2023-03-13T19:30:28.253Z,16.98
2023-03-13T19:33:02.723Z,22.88
2023-03-13T19:35:34.260Z,17.38
2023-03-13T19:38:04.658Z,20.25
2023-03-13T19:40:34.940Z,22.67
2023-03-13T19:43:05.592Z,23.10
2023-03-13T19:45:39.008Z,27.98
2023-03-13T19:48:08.159Z,29.77
2023-03-13T19:50:40.128Z,24.43
2023-03-13T19:53:20.302Z,24.90
2023-03-13T19:55:55.550Z,24.13
2023-03-13T19:58:41.023Z,26.98
2023-03-13T20:01:17.326Z,23.63
2023-03-13T20:03:57.128Z,22.15
2023-03-13T20:06:41.083Z,20.27
2023-03-13T20:09:24.616Z,23.10
2023-03-13T20:12:16.651Z,19.70
2023-03-13T20:14:55.615Z,21.65
2023-03-13T20:17:27.137Z,25.80
2023-03-13T20:20:02.571Z,16.95
2023-03-13T20:22:33.297Z,19.98
2023-03-13T20:25:04.916Z,22.77
2023-03-13T20:27:35.691Z,17.33
2023-03-13T20:30:15.870Z,31.45
2023-03-13T20:32:59.324Z,21.70
2023-03-13T20:35:43.144Z,23.17
2023-03-13T20:38:24.623Z,23.25
2023-03-13T20:43:54.952Z,23.63
2023-03-13T20:46:25.897Z,20.27
2023-03-13T20:49:02.289Z,23.52
2023-03-13T20:51:34.303Z,23.85
2023-03-13T20:54:18.611Z,21.05
2023-03-13T20:56:52.246Z,22.35
2023-03-13T20:59:31.327Z,28.45
2023-03-13T21:02:13.157Z,25.98
2023-03-13T21:04:45.604Z,22.73
2023-03-13T21:07:12.993Z,21.63
2023-03-13T21:09:50.962Z,20.83
2023-03-13T21:15:16.656Z,27.38
2023-03-13T21:17:49.989Z,26.95
2023-03-13T21:20:19.745Z,24.55
2023-03-13T21:22:54.953Z,18.92
2023-03-13T21:25:28.775Z,19.80
2023-03-13T21:27:59.470Z,28.55
2023-03-13T21:30:27.459Z,29.85
2023-03-13T21:33:11.710Z,26.52
2023-03-13T21:35:41.751Z,29.02
2023-03-13T21:38:13.444Z,24.30
2023-03-13T21:40:43.706Z,26.55
2023-03-13T21:43:20.267Z,21.05
2023-03-13T21:45:52.162Z,10.20
2023-03-13T21:51:18.224Z,5.25
2023-03-13T21:53:45.693Z,4.00
2023-03-13T21:56:23.569Z,12.02
2023-03-13T21:58:54.319Z,13.43
2023-03-13T22:01:28.796Z,18.33
2023-03-13T22:04:09.524Z,12.00
2023-03-13T22:07:00.395Z,4.57
2023-03-13T22:09:40.625Z,13.32
2023-03-13T22:12:18.765Z,7.63
2023-03-13T22:14:56.119Z,5.88
2023-03-13T22:17:55.238Z,5.80
2023-03-13T22:20:39.710Z,7.60
2023-03-13T22:23:13.221Z,5.82
2023-03-13T22:28:45.706Z,9.43
2023-03-13T22:31:27.303Z,4.03
2023-03-13T22:34:03.531Z,6.55
2023-03-13T22:36:46.867Z,5.28
2023-03-13T22:39:30.196Z,9.45
2023-03-13T22:42:03.750Z,6.68
2023-03-13T22:44:44.612Z,9.95
2023-03-13T22:47:26.162Z,11.95
2023-03-13T22:50:09.579Z,3.92
2023-03-13T22:52:47.962Z,6.43
2023-03-13T22:55:27.481Z,10.70
2023-03-13T22:58:14.242Z,13.05
2023-03-13T23:00:54.973Z,12.38
2023-03-13T23:03:35.286Z,4.97
2023-03-13T23:06:26.272Z,12.18
2023-03-13T23:09:14.884Z,11.30
2023-03-13T23:12:07.075Z,5.55
2023-03-13T23:14:48.933Z,10.00
2023-03-13T23:17:32.250Z,4.72
2023-03-13T23:20:16.684Z,2.35
2023-03-13T23:22:59.058Z,5.43
2023-03-13T23:25:41.292Z,4.18
2023-03-13T23:28:23.388Z,4.82
2023-03-13T23:31:04.460Z,7.30
2023-03-13T23:33:49.908Z,4.28
2023-03-13T23:36:36.358Z,1.48
2023-03-13T23:39:44.046Z,3.05
2023-03-13T23:42:35.472Z,3.00
2023-03-13T23:45:18.780Z,6.15
2023-03-13T23:48:05.099Z,4.72
2023-03-13T23:50:42.956Z,2.13
2023-03-13T23:53:21.085Z,4.75
2023-03-13T23:56:00.958Z,1.70
2023-03-13T23:58:33.675Z,4.80
